<?xml version="1.0" encoding="UTF-8" standalone="no" ?>
<gpx xmlns="http://www.topografix.com/GPX/1/1" xmlns:xsi="http://www.w3.org/2001/XMLSchema-instance" xsi:schemaLocation="http://www.topografix.com/GPX/1/1 http://www.topografix.com/GPX/1/1/gpx.xsd" version="1.1" creator="VisuGPX - https://www.visugpx.com">
  <metadata>
    <name>Pilat Rocher de Dentillon</name>
    <desc><![CDATA[Aller Retour au rocher de Dentillon au départ de Pélussin]]></desc>
  </metadata>
  <wpt lat="45.41754" lon="4.67919">
    <ele>438</ele>
    <name><![CDATA[Parking de la pharmacie à Pelussin]]></name>
  </wpt>
  <wpt lat="45.41314" lon="4.67887">
    <ele>427</ele>
    <name><![CDATA[23ème viaduc, montée goudronnée à droite]]></name>
  </wpt>
  <wpt lat="45.40971" lon="4.68067">
    <ele>452</ele>
    <name><![CDATA[A droite au niveau de la croix]]></name>
  </wpt>
  <wpt lat="45.40302" lon="4.66863">
    <ele>611</ele>
    <name><![CDATA[jonction chemins: prendre à gauche]]></name>
  </wpt>
  <wpt lat="45.4026" lon="4.66936">
    <ele>608</ele>
    <name><![CDATA[jonction chemins : monter à droite]]></name>
  </wpt>
  <wpt lat="45.40169" lon="4.66366">
    <ele>656</ele>
    <name><![CDATA[croisement de routes: aller à Chavardet]]></name>
  </wpt>
  <wpt lat="45.39943" lon="4.66018">
    <ele>671</ele>
    <name><![CDATA[Jonction - poteaux directionnels, chemin à droite]]></name>
  </wpt>
  <wpt lat="45.39793" lon="4.64821">
    <ele>887</ele>
    <name><![CDATA[Jonction avec piste: tout droit]]></name>
  </wpt>
  <wpt lat="45.3976" lon="4.64795">
    <ele>890</ele>
    <name><![CDATA[Jonction piste]]></name>
  </wpt>
  <wpt lat="45.39675" lon="4.64409">
    <ele>908</ele>
    <name><![CDATA[Quitter la piste et prendre à gauche]]></name>
  </wpt>
  <wpt lat="45.39497" lon="4.63898">
    <ele>975</ele>
    <name><![CDATA[Rocher de Dentillon]]></name>
  </wpt>
  <wpt lat="45.41754" lon="4.67919">
    <ele>438</ele>
    <name><![CDATA[Parking de la pharmacie à Pelussin]]></name>
  </wpt>
  <trk>
    <name><![CDATA[La cabane du Dentillon depuis Pelussin]]></name>
    <trkseg>
      <trkpt lat="45.41754" lon="4.67919">
        <ele>438</ele>
        <time>2018-07-23T14:52:46+02:00</time>
      </trkpt>
      <trkpt lat="45.41453" lon="4.67838">
        <ele>426</ele>
        <time>2018-07-23T14:52:51+02:00</time>
      </trkpt>
      <trkpt lat="45.41402" lon="4.6782">
        <ele>425</ele>
        <time>2018-07-23T14:52:56+02:00</time>
      </trkpt>
      <trkpt lat="45.41348" lon="4.67845">
        <ele>423</ele>
        <time>2018-07-23T14:53:01+02:00</time>
      </trkpt>
      <trkpt lat="45.41314" lon="4.67887">
        <ele>427</ele>
        <time>2018-07-23T14:53:06+02:00</time>
      </trkpt>
      <trkpt lat="45.41283" lon="4.67895">
        <ele>434</ele>
        <time>2018-07-23T14:53:11+02:00</time>
      </trkpt>
      <trkpt lat="45.41263" lon="4.67902">
        <ele>438</ele>
        <time>2018-07-23T14:53:16+02:00</time>
      </trkpt>
      <trkpt lat="45.41242" lon="4.67923">
        <ele>442</ele>
        <time>2018-07-23T14:53:21+02:00</time>
      </trkpt>
      <trkpt lat="45.412" lon="4.67949">
        <ele>447</ele>
        <time>2018-07-23T14:53:26+02:00</time>
      </trkpt>
      <trkpt lat="45.41082" lon="4.68018">
        <ele>455</ele>
        <time>2018-07-23T14:53:31+02:00</time>
      </trkpt>
      <trkpt lat="45.40971" lon="4.68067">
        <ele>452</ele>
        <time>2018-07-23T14:53:36+02:00</time>
      </trkpt>
      <trkpt lat="45.40986" lon="4.67945">
        <ele>461</ele>
        <time>2018-07-23T14:53:41+02:00</time>
      </trkpt>
      <trkpt lat="45.40983" lon="4.67872">
        <ele>468</ele>
        <time>2018-07-23T14:53:46+02:00</time>
      </trkpt>
      <trkpt lat="45.40989" lon="4.67726">
        <ele>484</ele>
        <time>2018-07-23T14:53:51+02:00</time>
      </trkpt>
      <trkpt lat="45.4082" lon="4.6776">
        <ele>497</ele>
        <time>2018-07-23T14:53:56+02:00</time>
      </trkpt>
      <trkpt lat="45.4079" lon="4.67722">
        <ele>499</ele>
        <time>2018-07-23T14:54:01+02:00</time>
      </trkpt>
      <trkpt lat="45.40817" lon="4.6767">
        <ele>508</ele>
        <time>2018-07-23T14:54:06+02:00</time>
      </trkpt>
      <trkpt lat="45.40817" lon="4.67627">
        <ele>514</ele>
        <time>2018-07-23T14:54:11+02:00</time>
      </trkpt>
      <trkpt lat="45.40793" lon="4.67614">
        <ele>513</ele>
        <time>2018-07-23T14:54:16+02:00</time>
      </trkpt>
      <trkpt lat="45.40787" lon="4.67567">
        <ele>518</ele>
        <time>2018-07-23T14:54:21+02:00</time>
      </trkpt>
      <trkpt lat="45.40775" lon="4.67481">
        <ele>529</ele>
        <time>2018-07-23T14:54:26+02:00</time>
      </trkpt>
      <trkpt lat="45.40775" lon="4.67408">
        <ele>542</ele>
        <time>2018-07-23T14:54:31+02:00</time>
      </trkpt>
      <trkpt lat="45.4076" lon="4.67361">
        <ele>550</ele>
        <time>2018-07-23T14:54:36+02:00</time>
      </trkpt>
      <trkpt lat="45.40745" lon="4.67275">
        <ele>561</ele>
        <time>2018-07-23T14:54:41+02:00</time>
      </trkpt>
      <trkpt lat="45.40745" lon="4.67215">
        <ele>568</ele>
        <time>2018-07-23T14:54:46+02:00</time>
      </trkpt>
      <trkpt lat="45.40697" lon="4.67112">
        <ele>579</ele>
        <time>2018-07-23T14:54:51+02:00</time>
      </trkpt>
      <trkpt lat="45.40624" lon="4.66996">
        <ele>584</ele>
        <time>2018-07-23T14:54:56+02:00</time>
      </trkpt>
      <trkpt lat="45.4057" lon="4.66941">
        <ele>589</ele>
        <time>2018-07-23T14:55:01+02:00</time>
      </trkpt>
      <trkpt lat="45.40501" lon="4.66876">
        <ele>602</ele>
        <time>2018-07-23T14:55:06+02:00</time>
      </trkpt>
      <trkpt lat="45.40426" lon="4.66855">
        <ele>607</ele>
        <time>2018-07-23T14:55:11+02:00</time>
      </trkpt>
      <trkpt lat="45.40356" lon="4.66898">
        <ele>606</ele>
        <time>2018-07-23T14:55:16+02:00</time>
      </trkpt>
      <trkpt lat="45.40302" lon="4.66863">
        <ele>611</ele>
        <time>2018-07-23T14:55:21+02:00</time>
      </trkpt>
      <trkpt lat="45.4026" lon="4.66936">
        <ele>608</ele>
        <time>2018-07-23T14:55:26+02:00</time>
      </trkpt>
      <trkpt lat="45.40251" lon="4.66889">
        <ele>613</ele>
        <time>2018-07-23T14:55:31+02:00</time>
      </trkpt>
      <trkpt lat="45.40263" lon="4.66769">
        <ele>624</ele>
        <time>2018-07-23T14:55:36+02:00</time>
      </trkpt>
      <trkpt lat="45.40263" lon="4.66696">
        <ele>630</ele>
        <time>2018-07-23T14:55:41+02:00</time>
      </trkpt>
      <trkpt lat="45.40245" lon="4.66593">
        <ele>638</ele>
        <time>2018-07-23T14:55:46+02:00</time>
      </trkpt>
      <trkpt lat="45.40233" lon="4.66473">
        <ele>645</ele>
        <time>2018-07-23T14:55:51+02:00</time>
      </trkpt>
      <trkpt lat="45.40245" lon="4.6643">
        <ele>649</ele>
        <time>2018-07-23T14:55:56+02:00</time>
      </trkpt>
      <trkpt lat="45.40169" lon="4.66366">
        <ele>656</ele>
        <time>2018-07-23T14:56:01+02:00</time>
      </trkpt>
      <trkpt lat="45.40169" lon="4.66207">
        <ele>667</ele>
        <time>2018-07-23T14:56:06+02:00</time>
      </trkpt>
      <trkpt lat="45.40034" lon="4.66078">
        <ele>671</ele>
        <time>2018-07-23T14:56:11+02:00</time>
      </trkpt>
      <trkpt lat="45.39989" lon="4.66048">
        <ele>672</ele>
        <time>2018-07-23T14:56:16+02:00</time>
      </trkpt>
      <trkpt lat="45.39943" lon="4.66018">
        <ele>671</ele>
        <time>2018-07-23T14:56:21+02:00</time>
      </trkpt>
      <trkpt lat="45.39916" lon="4.65941">
        <ele>685</ele>
        <time>2018-07-23T14:56:26+02:00</time>
      </trkpt>
      <trkpt lat="45.40076" lon="4.65966">
        <ele>709</ele>
        <time>2018-07-23T14:56:31+02:00</time>
      </trkpt>
      <trkpt lat="45.40001" lon="4.65833">
        <ele>748</ele>
        <time>2018-07-23T14:56:36+02:00</time>
      </trkpt>
      <trkpt lat="45.3994" lon="4.65782">
        <ele>738</ele>
        <time>2018-07-23T14:56:41+02:00</time>
      </trkpt>
      <trkpt lat="45.4004" lon="4.65786">
        <ele>755</ele>
        <time>2018-07-23T14:56:46+02:00</time>
      </trkpt>
      <trkpt lat="45.40103" lon="4.65799">
        <ele>753</ele>
        <time>2018-07-23T14:56:51+02:00</time>
      </trkpt>
      <trkpt lat="45.40103" lon="4.65748">
        <ele>762</ele>
        <time>2018-07-23T14:56:56+02:00</time>
      </trkpt>
      <trkpt lat="45.40058" lon="4.65692">
        <ele>776</ele>
        <time>2018-07-23T14:57:01+02:00</time>
      </trkpt>
      <trkpt lat="45.40022" lon="4.65649">
        <ele>785</ele>
        <time>2018-07-23T14:57:06+02:00</time>
      </trkpt>
      <trkpt lat="45.4004" lon="4.65615">
        <ele>788</ele>
        <time>2018-07-23T14:57:11+02:00</time>
      </trkpt>
      <trkpt lat="45.39998" lon="4.65477">
        <ele>811</ele>
        <time>2018-07-23T14:57:16+02:00</time>
      </trkpt>
      <trkpt lat="45.39953" lon="4.65387">
        <ele>825</ele>
        <time>2018-07-23T14:57:21+02:00</time>
      </trkpt>
      <trkpt lat="45.39904" lon="4.65254">
        <ele>845</ele>
        <time>2018-07-23T14:57:26+02:00</time>
      </trkpt>
      <trkpt lat="45.39874" lon="4.65125">
        <ele>859</ele>
        <time>2018-07-23T14:57:31+02:00</time>
      </trkpt>
      <trkpt lat="45.39895" lon="4.65005">
        <ele>870</ele>
        <time>2018-07-23T14:57:36+02:00</time>
      </trkpt>
      <trkpt lat="45.39868" lon="4.64928">
        <ele>875</ele>
        <time>2018-07-23T14:57:41+02:00</time>
      </trkpt>
      <trkpt lat="45.39793" lon="4.64821">
        <ele>887</ele>
        <time>2018-07-23T14:57:46+02:00</time>
      </trkpt>
      <trkpt lat="45.3976" lon="4.64795">
        <ele>890</ele>
        <time>2018-07-23T14:57:51+02:00</time>
      </trkpt>
      <trkpt lat="45.39705" lon="4.64559">
        <ele>897</ele>
        <time>2018-07-23T14:57:56+02:00</time>
      </trkpt>
      <trkpt lat="45.39675" lon="4.64409">
        <ele>908</ele>
        <time>2018-07-23T14:58:01+02:00</time>
      </trkpt>
      <trkpt lat="45.396" lon="4.64237">
        <ele>922</ele>
        <time>2018-07-23T14:58:06+02:00</time>
      </trkpt>
      <trkpt lat="45.39543" lon="4.64155">
        <ele>936</ele>
        <time>2018-07-23T14:58:11+02:00</time>
      </trkpt>
      <trkpt lat="45.39537" lon="4.641">
        <ele>945</ele>
        <time>2018-07-23T14:58:16+02:00</time>
      </trkpt>
      <trkpt lat="45.39446" lon="4.64018">
        <ele>968</ele>
        <time>2018-07-23T14:58:21+02:00</time>
      </trkpt>
      <trkpt lat="45.3947" lon="4.63962">
        <ele>975</ele>
        <time>2018-07-23T14:58:26+02:00</time>
      </trkpt>
      <trkpt lat="45.39497" lon="4.63898">
        <ele>975</ele>
        <time>2018-07-23T14:58:31+02:00</time>
      </trkpt>
      <trkpt lat="45.3947" lon="4.63962">
        <ele>975</ele>
        <time>2018-07-23T14:58:36+02:00</time>
      </trkpt>
      <trkpt lat="45.39446" lon="4.64018">
        <ele>968</ele>
        <time>2018-07-23T14:58:41+02:00</time>
      </trkpt>
      <trkpt lat="45.39537" lon="4.641">
        <ele>945</ele>
        <time>2018-07-23T14:58:46+02:00</time>
      </trkpt>
      <trkpt lat="45.39543" lon="4.64155">
        <ele>936</ele>
        <time>2018-07-23T14:58:51+02:00</time>
      </trkpt>
      <trkpt lat="45.396" lon="4.64237">
        <ele>922</ele>
        <time>2018-07-23T14:58:56+02:00</time>
      </trkpt>
      <trkpt lat="45.39675" lon="4.64409">
        <ele>908</ele>
        <time>2018-07-23T14:59:01+02:00</time>
      </trkpt>
      <trkpt lat="45.39705" lon="4.64559">
        <ele>897</ele>
        <time>2018-07-23T14:59:06+02:00</time>
      </trkpt>
      <trkpt lat="45.3976" lon="4.64795">
        <ele>890</ele>
        <time>2018-07-23T14:59:11+02:00</time>
      </trkpt>
      <trkpt lat="45.39793" lon="4.64821">
        <ele>887</ele>
        <time>2018-07-23T14:59:16+02:00</time>
      </trkpt>
      <trkpt lat="45.39868" lon="4.64928">
        <ele>875</ele>
        <time>2018-07-23T14:59:21+02:00</time>
      </trkpt>
      <trkpt lat="45.39895" lon="4.65005">
        <ele>870</ele>
        <time>2018-07-23T14:59:26+02:00</time>
      </trkpt>
      <trkpt lat="45.39874" lon="4.65125">
        <ele>859</ele>
        <time>2018-07-23T14:59:31+02:00</time>
      </trkpt>
      <trkpt lat="45.39904" lon="4.65254">
        <ele>845</ele>
        <time>2018-07-23T14:59:36+02:00</time>
      </trkpt>
      <trkpt lat="45.39953" lon="4.65387">
        <ele>825</ele>
        <time>2018-07-23T14:59:41+02:00</time>
      </trkpt>
      <trkpt lat="45.39998" lon="4.65477">
        <ele>811</ele>
        <time>2018-07-23T14:59:46+02:00</time>
      </trkpt>
      <trkpt lat="45.4004" lon="4.65615">
        <ele>788</ele>
        <time>2018-07-23T14:59:51+02:00</time>
      </trkpt>
      <trkpt lat="45.40022" lon="4.65649">
        <ele>785</ele>
        <time>2018-07-23T14:59:56+02:00</time>
      </trkpt>
      <trkpt lat="45.40058" lon="4.65692">
        <ele>776</ele>
        <time>2018-07-23T15:00:01+02:00</time>
      </trkpt>
      <trkpt lat="45.40103" lon="4.65748">
        <ele>762</ele>
        <time>2018-07-23T15:00:06+02:00</time>
      </trkpt>
      <trkpt lat="45.40103" lon="4.65799">
        <ele>753</ele>
        <time>2018-07-23T15:00:11+02:00</time>
      </trkpt>
      <trkpt lat="45.4004" lon="4.65786">
        <ele>755</ele>
        <time>2018-07-23T15:00:16+02:00</time>
      </trkpt>
      <trkpt lat="45.3994" lon="4.65782">
        <ele>738</ele>
        <time>2018-07-23T15:00:21+02:00</time>
      </trkpt>
      <trkpt lat="45.40001" lon="4.65833">
        <ele>748</ele>
        <time>2018-07-23T15:00:26+02:00</time>
      </trkpt>
      <trkpt lat="45.40076" lon="4.65966">
        <ele>709</ele>
        <time>2018-07-23T15:00:31+02:00</time>
      </trkpt>
      <trkpt lat="45.39916" lon="4.65941">
        <ele>685</ele>
        <time>2018-07-23T15:00:36+02:00</time>
      </trkpt>
      <trkpt lat="45.39943" lon="4.66018">
        <ele>671</ele>
        <time>2018-07-23T15:00:41+02:00</time>
      </trkpt>
      <trkpt lat="45.39989" lon="4.66048">
        <ele>672</ele>
        <time>2018-07-23T15:00:46+02:00</time>
      </trkpt>
      <trkpt lat="45.40034" lon="4.66078">
        <ele>671</ele>
        <time>2018-07-23T15:00:51+02:00</time>
      </trkpt>
      <trkpt lat="45.40169" lon="4.66207">
        <ele>667</ele>
        <time>2018-07-23T15:00:56+02:00</time>
      </trkpt>
      <trkpt lat="45.40169" lon="4.66366">
        <ele>656</ele>
        <time>2018-07-23T15:01:01+02:00</time>
      </trkpt>
      <trkpt lat="45.40245" lon="4.6643">
        <ele>649</ele>
        <time>2018-07-23T15:01:06+02:00</time>
      </trkpt>
      <trkpt lat="45.40233" lon="4.66473">
        <ele>645</ele>
        <time>2018-07-23T15:01:11+02:00</time>
      </trkpt>
      <trkpt lat="45.40245" lon="4.66593">
        <ele>638</ele>
        <time>2018-07-23T15:01:16+02:00</time>
      </trkpt>
      <trkpt lat="45.40263" lon="4.66696">
        <ele>630</ele>
        <time>2018-07-23T15:01:21+02:00</time>
      </trkpt>
      <trkpt lat="45.40263" lon="4.66769">
        <ele>624</ele>
        <time>2018-07-23T15:01:26+02:00</time>
      </trkpt>
      <trkpt lat="45.40251" lon="4.66889">
        <ele>613</ele>
        <time>2018-07-23T15:01:31+02:00</time>
      </trkpt>
      <trkpt lat="45.4026" lon="4.66936">
        <ele>608</ele>
        <time>2018-07-23T15:01:36+02:00</time>
      </trkpt>
      <trkpt lat="45.40302" lon="4.66863">
        <ele>611</ele>
        <time>2018-07-23T15:01:41+02:00</time>
      </trkpt>
      <trkpt lat="45.40356" lon="4.66898">
        <ele>606</ele>
        <time>2018-07-23T15:01:46+02:00</time>
      </trkpt>
      <trkpt lat="45.40426" lon="4.66855">
        <ele>607</ele>
        <time>2018-07-23T15:01:51+02:00</time>
      </trkpt>
      <trkpt lat="45.40501" lon="4.66876">
        <ele>602</ele>
        <time>2018-07-23T15:01:56+02:00</time>
      </trkpt>
      <trkpt lat="45.4057" lon="4.66941">
        <ele>589</ele>
        <time>2018-07-23T15:02:01+02:00</time>
      </trkpt>
      <trkpt lat="45.40624" lon="4.66996">
        <ele>584</ele>
        <time>2018-07-23T15:02:06+02:00</time>
      </trkpt>
      <trkpt lat="45.40697" lon="4.67112">
        <ele>579</ele>
        <time>2018-07-23T15:02:11+02:00</time>
      </trkpt>
      <trkpt lat="45.40745" lon="4.67215">
        <ele>568</ele>
        <time>2018-07-23T15:02:16+02:00</time>
      </trkpt>
      <trkpt lat="45.40745" lon="4.67275">
        <ele>561</ele>
        <time>2018-07-23T15:02:21+02:00</time>
      </trkpt>
      <trkpt lat="45.4076" lon="4.67361">
        <ele>550</ele>
        <time>2018-07-23T15:02:26+02:00</time>
      </trkpt>
      <trkpt lat="45.40775" lon="4.67408">
        <ele>542</ele>
        <time>2018-07-23T15:02:31+02:00</time>
      </trkpt>
      <trkpt lat="45.40775" lon="4.67481">
        <ele>529</ele>
        <time>2018-07-23T15:02:36+02:00</time>
      </trkpt>
      <trkpt lat="45.40787" lon="4.67567">
        <ele>518</ele>
        <time>2018-07-23T15:02:41+02:00</time>
      </trkpt>
      <trkpt lat="45.40793" lon="4.67614">
        <ele>513</ele>
        <time>2018-07-23T15:02:46+02:00</time>
      </trkpt>
      <trkpt lat="45.40817" lon="4.67627">
        <ele>514</ele>
        <time>2018-07-23T15:02:51+02:00</time>
      </trkpt>
      <trkpt lat="45.40817" lon="4.6767">
        <ele>508</ele>
        <time>2018-07-23T15:02:56+02:00</time>
      </trkpt>
      <trkpt lat="45.4079" lon="4.67722">
        <ele>499</ele>
        <time>2018-07-23T15:03:01+02:00</time>
      </trkpt>
      <trkpt lat="45.408" lon="4.67746">
        <ele>497</ele>
        <time>2018-07-23T15:03:06+02:00</time>
      </trkpt>
      <trkpt lat="45.4082" lon="4.6776">
        <ele>497</ele>
        <time>2018-07-23T15:03:11+02:00</time>
      </trkpt>
      <trkpt lat="45.40989" lon="4.67726">
        <ele>484</ele>
        <time>2018-07-23T15:03:16+02:00</time>
      </trkpt>
      <trkpt lat="45.40983" lon="4.67872">
        <ele>468</ele>
        <time>2018-07-23T15:03:21+02:00</time>
      </trkpt>
      <trkpt lat="45.40986" lon="4.67945">
        <ele>461</ele>
        <time>2018-07-23T15:03:26+02:00</time>
      </trkpt>
      <trkpt lat="45.40971" lon="4.68067">
        <ele>452</ele>
        <time>2018-07-23T15:03:31+02:00</time>
      </trkpt>
      <trkpt lat="45.41082" lon="4.68018">
        <ele>455</ele>
        <time>2018-07-23T15:03:36+02:00</time>
      </trkpt>
      <trkpt lat="45.412" lon="4.67949">
        <ele>447</ele>
        <time>2018-07-23T15:03:41+02:00</time>
      </trkpt>
      <trkpt lat="45.41242" lon="4.67923">
        <ele>442</ele>
        <time>2018-07-23T15:03:46+02:00</time>
      </trkpt>
      <trkpt lat="45.41265" lon="4.679">
        <ele>438</ele>
        <time>2018-07-23T15:03:51+02:00</time>
      </trkpt>
      <trkpt lat="45.41292" lon="4.67891">
        <ele>432</ele>
        <time>2018-07-23T15:03:56+02:00</time>
      </trkpt>
      <trkpt lat="45.4131" lon="4.67889">
        <ele>428</ele>
        <time>2018-07-23T15:04:01+02:00</time>
      </trkpt>
      <trkpt lat="45.41341" lon="4.6785">
        <ele>423</ele>
        <time>2018-07-23T15:04:06+02:00</time>
      </trkpt>
      <trkpt lat="45.41402" lon="4.6782">
        <ele>425</ele>
        <time>2018-07-23T15:04:11+02:00</time>
      </trkpt>
      <trkpt lat="45.41554" lon="4.67865">
        <ele>414</ele>
        <time>2018-07-23T15:04:16+02:00</time>
      </trkpt>
      <trkpt lat="45.41692" lon="4.67903">
        <ele>432</ele>
        <time>2018-07-23T15:04:21+02:00</time>
      </trkpt>
      <trkpt lat="45.41754" lon="4.67919">
        <ele>438</ele>
        <time>2018-07-23T15:04:26+02:00</time>
      </trkpt>
    </trkseg>
  </trk>
</gpx>